sensor_id;sensor_type;location;lat;lon;timestamp;pressure;altitude;pressure_sealevel;temperature;humidity
7614;BME280;3848;42.016;23.098;2023-01-29T00:01:52;97245.28;;;2.74;100.00
7614;BME280;3848;42.016;23.098;2023-01-29T00:04:19;97264.75;;;2.84;100.00
7614;BME280;3848;42.016;23.098;2023-01-29T00:06:45;97258.84;;;2.82;100.00
7614;BME280;3848;42.016;23.098;2023-01-29T00:09:12;97260.50;;;2.82;100.00
7614;BME280;3848;42.016;23.098;2023-01-29T00:11:39;97263.75;;;2.78;100.00
7614;BME280;3848;42.016;23.098;2023-01-29T00:14:06;97267.25;;;2.84;100.00
7614;BME280;3848;42.016;23.098;2023-01-29T00:16:33;97258.03;;;2.83;100.00
7614;BME280;3848;42.016;23.098;2023-01-29T00:19:02;97273.81;;;2.79;100.00
7614;BME280;3848;42.016;23.098;2023-01-29T00:21:29;97266.19;;;2.74;100.00
7614;BME280;3848;42.016;23.098;2023-01-29T00:23:56;97260.16;;;2.68;100.00
7614;BME280;3848;42.016;23.098;2023-01-29T00:26:23;97273.69;;;2.73;100.00
7614;BME280;3848;42.016;23.098;2023-01-29T00:28:50;97275.31;;;2.71;100.00
7614;BME280;3848;42.016;23.098;2023-01-29T00:31:19;97225.19;;;2.39;100.00
7614;BME280;3848;42.016;23.098;2023-01-29T00:33:47;97271.81;;;2.66;100.00
7614;BME280;3848;42.016;23.098;2023-01-29T00:36:16;97268.31;;;2.59;100.00
7614;BME280;3848;42.016;23.098;2023-01-29T00:38:44;97262.38;;;2.56;100.00
7614;BME280;3848;42.016;23.098;2023-01-29T00:41:19;97291.09;;;2.68;100.00
7614;BME280;3848;42.016;23.098;2023-01-29T00:44:05;97284.44;;;2.69;100.00
7614;BME280;3848;42.016;23.098;2023-01-29T00:46:49;97282.72;;;2.68;100.00
7614;BME280;3848;42.016;23.098;2023-01-29T00:49:16;97286.34;;;2.78;100.00
7614;BME280;3848;42.016;23.098;2023-01-29T00:51:44;97285.59;;;2.82;100.00
7614;BME280;3848;42.016;23.098;2023-01-29T00:54:32;97289.13;;;2.90;100.00
7614;BME280;3848;42.016;23.098;2023-01-29T00:56:59;97284.09;;;2.90;100.00
7614;BME280;3848;42.016;23.098;2023-01-29T00:59:26;97279.94;;;2.90;100.00
7614;BME280;3848;42.016;23.098;2023-01-29T01:01:53;97279.09;;;2.90;100.00
7614;BME280;3848;42.016;23.098;2023-01-29T01:04:37;97283.44;;;2.95;100.00
7614;BME280;3848;42.016;23.098;2023-01-29T01:07:05;97289.16;;;2.91;100.00
7614;BME280;3848;42.016;23.098;2023-01-29T01:09:34;97281.63;;;2.91;100.00
7614;BME280;3848;42.016;23.098;2023-01-29T01:12:33;97279.94;;;2.90;100.00
7614;BME280;3848;42.016;23.098;2023-01-29T01:14:59;97277.53;;;2.93;100.00
7614;BME280;3848;42.016;23.098;2023-01-29T01:17:26;97285.81;;;2.91;100.00
7614;BME280;3848;42.016;23.098;2023-01-29T01:19:53;97285.91;;;2.94;100.00
7614;BME280;3848;42.016;23.098;2023-01-29T01:22:21;97292.69;;;2.98;100.00
7614;BME280;3848;42.016;23.098;2023-01-29T01:24:48;97281.81;;;2.97;100.00
7614;BME280;3848;42.016;23.098;2023-01-29T01:27:15;97290.19;;;2.98;100.00
7614;BME280;3848;42.016;23.098;2023-01-29T01:29:43;97301.03;;;2.97;100.00
7614;BME280;3848;42.016;23.098;2023-01-29T01:32:10;97299.25;;;2.93;100.00
7614;BME280;3848;42.016;23.098;2023-01-29T01:34:37;97234.88;;;2.59;100.00
7614;BME280;3848;42.016;23.098;2023-01-29T01:37:04;97287.69;;;2.99;100.00
7614;BME280;3848;42.016;23.098;2023-01-29T01:39:32;97291.84;;;2.97;100.00
7614;BME280;3848;42.016;23.098;2023-01-29T01:41:59;97290.81;;;2.91;100.00
7614;BME280;3848;42.016;23.098;2023-01-29T01:44:52;97290.75;;;2.88;100.00
7614;BME280;3848;42.016;23.098;2023-01-29T01:47:22;97275.25;;;2.69;100.00
7614;BME280;3848;42.016;23.098;2023-01-29T01:49:50;97295.44;;;2.74;100.00
7614;BME280;3848;42.016;23.098;2023-01-29T01:52:18;97291.38;;;2.79;100.00
7614;BME280;3848;42.016;23.098;2023-01-29T01:54:47;97282.19;;;2.80;100.00
7614;BME280;3848;42.016;23.098;2023-01-29T01:57:17;97278.91;;;2.82;100.00
7614;BME280;3848;42.016;23.098;2023-01-29T01:59:52;97232.44;;;2.62;100.00
7614;BME280;3848;42.016;23.098;2023-01-29T02:02:20;97282.53;;;2.93;100.00
7614;BME280;3848;42.016;23.098;2023-01-29T02:05:05;97283.44;;;2.95;100.00
7614;BME280;3848;42.016;23.098;2023-01-29T02:07:50;97278.44;;;2.97;100.00
7614;BME280;3848;42.016;23.098;2023-01-29T02:10:40;97282.59;;;2.95;100.00
7614;BME280;3848;42.016;23.098;2023-01-29T02:13:08;97284.28;;;2.96;100.00
7614;BME280;3848;42.016;23.098;2023-01-29T02:15:35;97285.13;;;2.96;100.00
7614;BME280;3848;42.016;23.098;2023-01-29T02:18:06;97294.34;;;2.97;100.00
7614;BME280;3848;42.016;23.098;2023-01-29T02:20:34;97286.78;;;2.96;100.00
7614;BME280;3848;42.016;23.098;2023-01-29T02:23:15;97279.25;;;2.96;100.00
7614;BME280;3848;42.016;23.098;2023-01-29T02:26:18;97282.59;;;2.95;100.00
7614;BME280;3848;42.016;23.098;2023-01-29T02:28:55;97284.91;;;2.89;100.00
7614;BME280;3848;42.016;23.098;2023-01-29T02:31:48;97286.47;;;2.84;100.00
7614;BME280;3848;42.016;23.098;2023-01-29T02:34:23;97294.16;;;2.90;100.00
7614;BME280;3848;42.016;23.098;2023-01-29T02:37:00;97291.66;;;2.91;100.00
7614;BME280;3848;42.016;23.098;2023-01-29T02:39:33;97276.63;;;2.91;100.00
7614;BME280;3848;42.016;23.098;2023-01-29T02:42:07;97296.09;;;3.00;100.00
7614;BME280;3848;42.016;23.098;2023-01-29T02:44:44;97295.22;;;2.99;100.00
7614;BME280;3848;42.016;23.098;2023-01-29T02:47:17;97301.94;;;3.00;100.00
7614;BME280;3848;42.016;23.098;2023-01-29T02:49:49;97293.59;;;3.01;100.00
7614;BME280;3848;42.016;23.098;2023-01-29T02:52:20;97290.88;;;2.92;100.00
7614;BME280;3848;42.016;23.098;2023-01-29T02:54:51;97300.31;;;3.02;100.00
7614;BME280;3848;42.016;23.098;2023-01-29T02:57:21;97275.88;;;2.94;100.00
7614;BME280;3848;42.016;23.098;2023-01-29T02:59:53;97303.50;;;2.95;100.00
7614;BME280;3848;42.016;23.098;2023-01-29T03:02:27;97293.53;;;2.98;100.00
7614;BME280;3848;42.016;23.098;2023-01-29T03:04:59;97293.50;;;2.97;100.00
7614;BME280;3848;42.016;23.098;2023-01-29T03:07:31;97243.47;;;2.70;100.00
7614;BME280;3848;42.016;23.098;2023-01-29T03:10:14;97295.13;;;2.95;100.00
7614;BME280;3848;42.016;23.098;2023-01-29T03:12:43;97296.78;;;2.94;100.00
7614;BME280;3848;42.016;23.098;2023-01-29T03:15:17;97293.41;;;2.92;100.00
7614;BME280;3848;42.016;23.098;2023-01-29T03:17:52;97292.59;;;2.93;100.00
7614;BME280;3848;42.016;23.098;2023-01-29T03:20:23;97301.81;;;2.94;100.00
7614;BME280;3848;42.016;23.098;2023-01-29T03:22:56;97291.88;;;2.99;100.00
7614;BME280;3848;42.016;23.098;2023-01-29T03:25:27;97304.59;;;3.06;100.00
7614;BME280;3848;42.016;23.098;2023-01-29T03:28:13;97297.81;;;3.02;100.00
7614;BME280;3848;42.016;23.098;2023-01-29T03:31:03;97283.44;;;2.95;100.00
7614;BME280;3848;42.016;23.098;2023-01-29T03:33:50;97305.47;;;3.09;100.00
7614;BME280;3848;42.016;23.098;2023-01-29T03:36:21;97311.28;;;3.06;100.00
7614;BME280;3848;42.016;23.098;2023-01-29T03:38:49;97310.34;;;3.02;100.00
7614;BME280;3848;42.016;23.098;2023-01-29T03:41:29;97308.81;;;3.08;100.00
7614;BME280;3848;42.016;23.098;2023-01-29T03:44:05;97307.09;;;3.06;100.00
7614;BME280;3848;42.016;23.098;2023-01-29T03:46:40;97312.94;;;3.05;100.00
7614;BME280;3848;42.016;23.098;2023-01-29T03:49:16;97307.94;;;3.07;100.00
7614;BME280;3848;42.016;23.098;2023-01-29T03:51:51;97317.94;;;3.04;100.00
7614;BME280;3848;42.016;23.098;2023-01-29T03:54:25;97310.50;;;3.09;100.00
7614;BME280;3848;42.016;23.098;2023-01-29T03:56:59;97319.66;;;3.06;100.00
7614;BME280;3848;42.016;23.098;2023-01-29T03:59:34;97325.56;;;3.09;100.00
7614;BME280;3848;42.016;23.098;2023-01-29T04:02:07;97324.59;;;3.03;100.00
7614;BME280;3848;42.016;23.098;2023-01-29T04:04:37;97326.34;;;3.06;100.00
7614;BME280;3848;42.016;23.098;2023-01-29T04:07:09;97325.50;;;3.05;100.00
7614;BME280;3848;42.016;23.098;2023-01-29T04:09:41;97308.56;;;2.97;100.00
7614;BME280;3848;42.016;23.098;2023-01-29T04:12:10;97327.03;;;3.00;100.00
7614;BME280;3848;42.016;23.098;2023-01-29T04:14:37;97326.19;;;3.00;100.00
7614;BME280;3848;42.016;23.098;2023-01-29T04:17:10;97335.53;;;3.05;100.00
7614;BME280;3848;42.016;23.098;2023-01-29T04:19:38;97287.94;;;2.74;100.00
7614;BME280;3848;42.016;23.098;2023-01-29T04:22:08;97327.03;;;3.00;100.00
7614;BME280;3848;42.016;23.098;2023-01-29T04:24:38;97337.00;;;2.97;100.00
7614;BME280;3848;42.016;23.098;2023-01-29T04:27:17;97325.88;;;2.88;100.00
7614;BME280;3848;42.016;23.098;2023-01-29T04:30:02;97331.50;;;2.78;100.00
7614;BME280;3848;42.016;23.098;2023-01-29T04:32:39;97322.25;;;2.75;100.00
7614;BME280;3848;42.016;23.098;2023-01-29T04:35:21;97329.69;;;2.72;100.00
7614;BME280;3848;42.016;23.098;2023-01-29T04:38:00;97338.09;;;2.74;100.00
7614;BME280;3848;42.016;23.098;2023-01-29T04:40:37;97326.78;;;2.57;100.00
7614;BME280;3848;42.016;23.098;2023-01-29T04:43:08;97336.84;;;2.58;100.00
7614;BME280;3848;42.016;23.098;2023-01-29T04:45:44;97342.78;;;2.62;100.00
7614;BME280;3848;42.016;23.098;2023-01-29T04:48:21;97337.81;;;2.63;100.00
7614;BME280;3848;42.016;23.098;2023-01-29T04:50:55;97344.56;;;2.66;100.00
7614;BME280;3848;42.016;23.098;2023-01-29T04:53:27;97345.59;;;2.72;100.00
7614;BME280;3848;42.016;23.098;2023-01-29T04:56:06;97351.53;;;2.76;100.00
7614;BME280;3848;42.016;23.098;2023-01-29T04:58:36;97344.75;;;2.72;100.00
7614;BME280;3848;42.016;23.098;2023-01-29T05:01:10;97350.75;;;2.79;100.00
7614;BME280;3848;42.016;23.098;2023-01-29T05:03:41;97356.38;;;2.70;100.00
7614;BME280;3848;42.016;23.098;2023-01-29T05:06:10;97356.53;;;2.76;100.00
7614;BME280;3848;42.016;23.098;2023-01-29T05:08:38;97348.09;;;2.72;100.00
7614;BME280;3848;42.016;23.098;2023-01-29T05:11:06;97353.25;;;2.79;100.00
7614;BME280;3848;42.016;23.098;2023-01-29T05:13:36;97356.69;;;2.82;100.00
7614;BME280;3848;42.016;23.098;2023-01-29T05:16:09;97354.06;;;2.78;100.00
7614;BME280;3848;42.016;23.098;2023-01-29T05:18:40;97353.22;;;2.77;100.00
7614;BME280;3848;42.016;23.098;2023-01-29T05:21:07;97362.53;;;2.81;100.00
7614;BME280;3848;42.016;23.098;2023-01-29T05:23:34;97366.69;;;2.81;100.00
7614;BME280;3848;42.016;23.098;2023-01-29T05:26:02;97367.53;;;2.81;100.00
7614;BME280;3848;42.016;23.098;2023-01-29T05:28:29;97363.47;;;2.86;100.00
7614;BME280;3848;42.016;23.098;2023-01-29T05:30:55;97360.09;;;2.84;100.00
7614;BME280;3848;42.016;23.098;2023-01-29T05:33:24;97372.94;;;2.95;100.00
7614;BME280;3848;42.016;23.098;2023-01-29T05:35:53;97372.94;;;2.95;100.00
7614;BME280;3848;42.016;23.098;2023-01-29T05:38:21;97368.84;;;2.98;100.00
7614;BME280;3848;42.016;23.098;2023-01-29T05:40:48;97384.03;;;3.04;100.00
7614;BME280;3848;42.016;23.098;2023-01-29T05:43:17;97371.41;;;3.01;100.00
7614;BME280;3848;42.016;23.098;2023-01-29T05:45:51;97374.09;;;3.09;100.00
7614;BME280;3848;42.016;23.098;2023-01-29T05:48:18;97382.41;;;3.06;100.00
7614;BME280;3848;42.016;23.098;2023-01-29T05:50:44;97384.09;;;3.08;100.00
7614;BME280;3848;42.016;23.098;2023-01-29T05:53:13;97367.25;;;3.02;100.00
7614;BME280;3848;42.016;23.098;2023-01-29T05:55:43;97389.19;;;3.11;100.00
7614;BME280;3848;42.016;23.098;2023-01-29T05:58:10;97383.38;;;3.12;100.00
7614;BME280;3848;42.016;23.098;2023-01-29T06:00:36;97390.91;;;3.12;100.00
7614;BME280;3848;42.016;23.098;2023-01-29T06:03:03;97391.00;;;3.15;100.00
7614;BME280;3848;42.016;23.098;2023-01-29T06:05:30;97383.22;;;3.05;100.00
7614;BME280;3848;42.016;23.098;2023-01-29T06:07:57;97390.81;;;3.09;100.00
7614;BME280;3848;42.016;23.098;2023-01-29T06:10:25;97390.13;;;3.13;100.00
7614;BME280;3848;42.016;23.098;2023-01-29T06:12:52;97402.75;;;3.16;100.00
7614;BME280;3848;42.016;23.098;2023-01-29T06:15:18;97401.13;;;3.18;100.00
7614;BME280;3848;42.016;23.098;2023-01-29T06:17:45;97401.94;;;3.17;100.00
7614;BME280;3848;42.016;23.098;2023-01-29T06:20:12;97410.31;;;3.17;100.00
7614;BME280;3848;42.016;23.098;2023-01-29T06:22:39;97407.03;;;3.20;100.00
7614;BME280;3848;42.016;23.098;2023-01-29T06:25:07;97411.38;;;3.27;100.00
7614;BME280;3848;42.016;23.098;2023-01-29T06:27:35;97413.06;;;3.28;100.00
7614;BME280;3848;42.016;23.098;2023-01-29T06:30:02;97412.81;;;3.17;100.00
7614;BME280;3848;42.016;23.098;2023-01-29T06:32:29;97421.88;;;3.12;100.00
7614;BME280;3848;42.016;23.098;2023-01-29T06:34:55;97424.34;;;3.11;100.00
7614;BME280;3848;42.016;23.098;2023-01-29T06:37:22;97420.94;;;3.09;100.00
7614;BME280;3848;42.016;23.098;2023-01-29T06:39:49;97410.06;;;3.08;100.00
7614;BME280;3848;42.016;23.098;2023-01-29T06:42:16;97410.97;;;3.12;100.00
7614;BME280;3848;42.016;23.098;2023-01-29T06:44:44;97428.69;;;3.16;100.00
7614;BME280;3848;42.016;23.098;2023-01-29T06:47:10;97431.28;;;3.19;100.00
7614;BME280;3848;42.016;23.098;2023-01-29T06:49:37;97380.50;;;2.96;100.00
7614;BME280;3848;42.016;23.098;2023-01-29T06:52:04;97427.84;;;3.16;100.00
7614;BME280;3848;42.016;23.098;2023-01-29T06:54:31;97431.31;;;3.21;100.00
7614;BME280;3848;42.016;23.098;2023-01-29T06:56:58;97435.59;;;3.25;100.00
7614;BME280;3848;42.016;23.098;2023-01-29T06:59:24;97439.00;;;3.27;100.00
7614;BME280;3848;42.016;23.098;2023-01-29T07:01:52;97439.06;;;3.30;100.00
7614;BME280;3848;42.016;23.098;2023-01-29T07:04:19;97436.69;;;3.34;100.00
7614;BME280;3848;42.016;23.098;2023-01-29T07:06:46;97439.19;;;3.34;100.00
7614;BME280;3848;42.016;23.098;2023-01-29T07:09:13;97387.25;;;2.99;100.00
7614;BME280;3848;42.016;23.098;2023-01-29T07:11:40;97444.97;;;3.32;100.00
7614;BME280;3848;42.016;23.098;2023-01-29T07:14:07;97445.88;;;3.34;100.00
7614;BME280;3848;42.016;23.098;2023-01-29T07:16:33;97440.03;;;3.33;100.00
7614;BME280;3848;42.016;23.098;2023-01-29T07:19:02;97450.91;;;3.34;100.00
7614;BME280;3848;42.016;23.098;2023-01-29T07:21:28;97451.78;;;3.36;100.00
7614;BME280;3848;42.016;23.098;2023-01-29T07:23:56;97460.28;;;3.41;100.00
7614;BME280;3848;42.016;23.098;2023-01-29T07:26:22;97457.78;;;3.41;100.00
7614;BME280;3848;42.016;23.098;2023-01-29T07:28:49;97463.66;;;3.42;100.00
7614;BME280;3848;42.016;23.098;2023-01-29T07:31:16;97458.66;;;3.43;100.00
7614;BME280;3848;42.016;23.098;2023-01-29T07:33:43;97459.69;;;3.51;100.00
7614;BME280;3848;42.016;23.098;2023-01-29T07:36:12;97463.09;;;3.53;100.00
7614;BME280;3848;42.016;23.098;2023-01-29T07:38:39;97468.84;;;3.49;100.00
7614;BME280;3848;42.016;23.098;2023-01-29T07:41:06;97462.06;;;3.45;100.00
7614;BME280;3848;42.016;23.098;2023-01-29T07:43:33;97455.41;;;3.47;100.00
7614;BME280;3848;42.016;23.098;2023-01-29T07:46:01;97455.72;;;3.59;100.00
7614;BME280;3848;42.016;23.098;2023-01-29T07:48:28;97463.41;;;3.65;100.00
7614;BME280;3848;42.016;23.098;2023-01-29T07:50:55;97467.59;;;3.66;100.00
7614;BME280;3848;42.016;23.098;2023-01-29T07:53:25;97453.22;;;3.59;100.00
7614;BME280;3848;42.016;23.098;2023-01-29T07:55:52;97466.78;;;3.67;100.00
7614;BME280;3848;42.016;23.098;2023-01-29T07:58:21;97477.09;;;3.77;100.00
7614;BME280;3848;42.016;23.098;2023-01-29T08:00:48;97476.31;;;3.79;100.00
7614;BME280;3848;42.016;23.098;2023-01-29T08:03:16;97482.25;;;3.83;100.00
7614;BME280;3848;42.016;23.098;2023-01-29T08:05:44;97479.66;;;3.80;100.00
7614;BME280;3848;42.016;23.098;2023-01-29T08:08:14;97476.28;;;3.78;100.00
7614;BME280;3848;42.016;23.098;2023-01-29T08:10:42;97459.50;;;3.77;100.00
7614;BME280;3848;42.016;23.098;2023-01-29T08:13:09;97485.88;;;3.95;100.00
7614;BME280;3848;42.016;23.098;2023-01-29T08:15:35;97490.28;;;4.04;100.00
7614;BME280;3848;42.016;23.098;2023-01-29T08:18:03;97483.50;;;4.00;100.00
7614;BME280;3848;42.016;23.098;2023-01-29T08:20:30;97485.31;;;4.07;100.00
7614;BME280;3848;42.016;23.098;2023-01-29T08:23:00;97484.31;;;3.99;100.00
7614;BME280;3848;42.016;23.098;2023-01-29T08:25:28;97493.56;;;4.00;100.00
7614;BME280;3848;42.016;23.098;2023-01-29T08:27:57;97496.09;;;4.02;100.00
7614;BME280;3848;42.016;23.098;2023-01-29T08:30:25;97491.03;;;4.00;100.00
7614;BME280;3848;42.016;23.098;2023-01-29T08:32:52;97493.41;;;3.95;100.00
7614;BME280;3848;42.016;23.098;2023-01-29T08:35:19;97498.56;;;3.98;100.00
7614;BME280;3848;42.016;23.098;2023-01-29T08:37:51;97499.41;;;3.99;100.00
7614;BME280;3848;42.016;23.098;2023-01-29T08:40:18;97486.66;;;3.93;100.00
7614;BME280;3848;42.016;23.098;2023-01-29T08:42:45;97498.63;;;4.02;100.00
7614;BME280;3848;42.016;23.098;2023-01-29T08:45:13;97504.66;;;4.10;100.00
7614;BME280;3848;42.016;23.098;2023-01-29T08:47:44;97500.44;;;4.09;100.00
7614;BME280;3848;42.016;23.098;2023-01-29T08:50:11;97507.25;;;4.13;100.00
7614;BME280;3848;42.016;23.098;2023-01-29T08:52:37;97507.38;;;4.17;100.00
7614;BME280;3848;42.016;23.098;2023-01-29T08:55:05;97514.97;;;4.20;100.00
7614;BME280;3848;42.016;23.098;2023-01-29T08:57:33;97512.47;;;4.20;100.00
7614;BME280;3848;42.016;23.098;2023-01-29T09:00:00;97511.59;;;4.18;100.00
7614;BME280;3848;42.016;23.098;2023-01-29T09:02:29;97523.34;;;4.19;100.00
7614;BME280;3848;42.016;23.098;2023-01-29T09:04:56;97516.66;;;4.20;100.00
7614;BME280;3848;42.016;23.098;2023-01-29T09:07:22;97516.78;;;4.26;100.00
7614;BME280;3848;42.016;23.098;2023-01-29T09:09:49;97519.50;;;4.37;100.00
7614;BME280;3848;42.016;23.098;2023-01-29T09:12:17;97506.00;;;4.32;100.00
7614;BME280;3848;42.016;23.098;2023-01-29T09:14:43;97516.28;;;4.41;100.00
7614;BME280;3848;42.016;23.098;2023-01-29T09:17:10;97518.13;;;4.49;100.00
7614;BME280;3848;42.016;23.098;2023-01-29T09:19:38;97514.88;;;4.53;100.00
7614;BME280;3848;42.016;23.098;2023-01-29T09:22:05;97519.03;;;4.53;100.00
7614;BME280;3848;42.016;23.098;2023-01-29T09:24:32;97514.09;;;4.57;100.00
7614;BME280;3848;42.016;23.098;2023-01-29T09:27:00;97506.75;;;4.65;100.00
7614;BME280;3848;42.016;23.098;2023-01-29T09:29:27;97515.88;;;4.60;100.00
7614;BME280;3848;42.016;23.098;2023-01-29T09:31:54;97508.31;;;4.60;100.00
7614;BME280;3848;42.016;23.098;2023-01-29T09:34:20;97488.81;;;4.51;100.00
7614;BME280;3848;42.016;23.098;2023-01-29T09:36:50;97501.75;;;4.68;100.00
7614;BME280;3848;42.016;23.098;2023-01-29T09:39:17;97493.41;;;4.69;100.00
7614;BME280;3848;42.016;23.098;2023-01-29T09:41:51;97479.06;;;4.65;100.00
7614;BME280;3848;42.016;23.098;2023-01-29T09:44:25;97499.25;;;4.68;100.00
7614;BME280;3848;42.016;23.098;2023-01-29T09:46:55;97486.53;;;4.62;100.00
7614;BME280;3848;42.016;23.098;2023-01-29T09:49:26;97483.16;;;4.60;100.00
7614;BME280;3848;42.016;23.098;2023-01-29T09:52:00;97479.88;;;4.64;100.00
7614;BME280;3848;42.016;23.098;2023-01-29T09:54:31;97480.84;;;4.71;100.00
7614;BME280;3848;42.016;23.098;2023-01-29T09:57:00;97477.50;;;4.72;100.00
7614;BME280;3848;42.016;23.098;2023-01-29T09:59:29;97480.09;;;4.76;100.00
7614;BME280;3848;42.016;23.098;2023-01-29T10:02:07;97468.13;;;4.63;100.00
7614;BME280;3848;42.016;23.098;2023-01-29T10:04:55;97469.81;;;4.64;100.00
7614;BME280;3848;42.016;23.098;2023-01-29T10:07:45;97462.22;;;4.63;100.00
7614;BME280;3848;42.016;23.098;2023-01-29T10:10:25;97451.19;;;4.57;100.00
7614;BME280;3848;42.016;23.098;2023-01-29T10:13:02;97453.84;;;4.62;100.00
7614;BME280;3848;42.016;23.098;2023-01-29T10:15:53;97457.22;;;4.64;100.00
7614;BME280;3848;42.016;23.098;2023-01-29T10:21:27;97451.38;;;4.65;100.00
7614;BME280;3848;42.016;23.098;2023-01-29T10:24:07;97449.75;;;4.69;100.00
7614;BME280;3848;42.016;23.098;2023-01-29T10:26:38;97432.03;;;4.63;100.00
7614;BME280;3848;42.016;23.098;2023-01-29T10:29:07;97438.06;;;4.71;100.00
7614;BME280;3848;42.016;23.098;2023-01-29T10:31:39;97434.63;;;4.67;100.00
7614;BME280;3848;42.016;23.098;2023-01-29T10:34:11;97433.00;;;4.69;100.00
7614;BME280;3848;42.016;23.098;2023-01-29T10:36:42;97442.28;;;4.73;100.00
7614;BME280;3848;42.016;23.098;2023-01-29T10:39:14;97432.22;;;4.73;100.00
7614;BME280;3848;42.016;23.098;2023-01-29T10:41:52;97428.06;;;4.75;100.00
7614;BME280;3848;42.016;23.098;2023-01-29T10:44:34;97433.25;;;4.81;100.00
7614;BME280;3848;42.016;23.098;2023-01-29T10:47:33;97432.41;;;4.81;100.00
7614;BME280;3848;42.016;23.098;2023-01-29T10:50:24;97421.34;;;4.74;100.00
7614;BME280;3848;42.016;23.098;2023-01-29T10:53:14;97429.03;;;4.80;100.00
7614;BME280;3848;42.016;23.098;2023-01-29T10:55:54;97421.41;;;4.77;100.00
7614;BME280;3848;42.016;23.098;2023-01-29T10:58:31;97414.66;;;4.76;100.00
7614;BME280;3848;42.016;23.098;2023-01-29T11:00:59;97352.81;;;4.44;100.00
7614;BME280;3848;42.016;23.098;2023-01-29T11:03:27;97355.41;;;4.47;100.00
7614;BME280;3848;42.016;23.098;2023-01-29T11:06:01;97409.81;;;4.85;100.00
7614;BME280;3848;42.016;23.098;2023-01-29T11:08:33;97414.13;;;4.91;100.00
7614;BME280;3848;42.016;23.098;2023-01-29T11:11:07;97381.13;;;4.77;100.00
7614;BME280;3848;42.016;23.098;2023-01-29T11:13:39;97403.25;;;4.94;100.00
7614;BME280;3848;42.016;23.098;2023-01-29T11:16:09;97405.81;;;4.97;100.00
7614;BME280;3848;42.016;23.098;2023-01-29T11:18:56;97408.53;;;5.06;100.00
7614;BME280;3848;42.016;23.098;2023-01-29T11:21:24;97401.84;;;5.08;100.00
7614;BME280;3848;42.016;23.098;2023-01-29T11:24:05;97390.88;;;5.04;100.00
7614;BME280;3848;42.016;23.098;2023-01-29T11:26:36;97396.72;;;5.03;100.00
7614;BME280;3848;42.016;23.098;2023-01-29T11:29:08;97399.97;;;4.98;100.00
7614;BME280;3848;42.016;23.098;2023-01-29T11:31:54;97393.25;;;4.98;100.00
7614;BME280;3848;42.016;23.098;2023-01-29T11:34:23;97395.84;;;5.01;100.00
7614;BME280;3848;42.016;23.098;2023-01-29T11:36:56;97386.63;;;5.02;100.00
7614;BME280;3848;42.016;23.098;2023-01-29T11:39:24;97398.22;;;4.94;100.00
7614;BME280;3848;42.016;23.098;2023-01-29T11:41:56;97386.44;;;4.93;100.00
7614;BME280;3848;42.016;23.098;2023-01-29T11:44:28;97380.59;;;4.94;100.00
7614;BME280;3848;42.016;23.098;2023-01-29T11:46:56;97375.72;;;5.01;100.00
7614;BME280;3848;42.016;23.098;2023-01-29T11:49:32;97374.91;;;5.04;100.00
7614;BME280;3848;42.016;23.098;2023-01-29T11:52:01;97354.44;;;4.85;100.00
7614;BME280;3848;42.016;23.098;2023-01-29T11:54:33;97379.09;;;5.03;100.00
7614;BME280;3848;42.016;23.098;2023-01-29T11:57:04;97374.88;;;5.01;100.00
7614;BME280;3848;42.016;23.098;2023-01-29T11:59:39;97373.91;;;4.96;100.00
7614;BME280;3848;42.016;23.098;2023-01-29T12:02:24;97379.06;;;5.02;100.00
7614;BME280;3848;42.016;23.098;2023-01-29T12:04:54;97374.78;;;4.98;100.00
7614;BME280;3848;42.016;23.098;2023-01-29T12:07:22;97374.88;;;5.01;100.00
7614;BME280;3848;42.016;23.098;2023-01-29T12:09:51;97360.41;;;4.92;100.00
7614;BME280;3848;42.016;23.098;2023-01-29T12:12:40;97375.56;;;4.94;100.00
7614;BME280;3848;42.016;23.098;2023-01-29T12:15:18;97381.47;;;4.97;100.00
7614;BME280;3848;42.016;23.098;2023-01-29T12:17:52;97371.44;;;4.99;100.00
7614;BME280;3848;42.016;23.098;2023-01-29T12:20:27;97359.66;;;4.98;100.00
7614;BME280;3848;42.016;23.098;2023-01-29T12:23:02;97377.47;;;5.07;100.00
7614;BME280;3848;42.016;23.098;2023-01-29T12:25:39;97369.88;;;5.04;100.00
7614;BME280;3848;42.016;23.098;2023-01-29T12:28:18;97375.00;;;5.10;100.00
7614;BME280;3848;42.016;23.098;2023-01-29T12:30:56;97370.75;;;5.06;100.00
7614;BME280;3848;42.016;23.098;2023-01-29T12:33:36;97355.44;;;4.95;100.00
7614;BME280;3848;42.016;23.098;2023-01-29T12:36:09;97367.22;;;4.98;100.00
7614;BME280;3848;42.016;23.098;2023-01-29T12:38:38;97368.22;;;5.06;100.00
7614;BME280;3848;42.016;23.098;2023-01-29T12:41:10;97357.28;;;5.04;100.00
7614;BME280;3848;42.016;23.098;2023-01-29T12:43:45;97369.91;;;5.07;100.00
7614;BME280;3848;42.016;23.098;2023-01-29T12:46:20;97357.34;;;5.08;100.00
7614;BME280;3848;42.016;23.098;2023-01-29T12:48:48;97361.63;;;5.14;100.00
7614;BME280;3848;42.016;23.098;2023-01-29T12:51:18;97359.22;;;5.20;100.00
7614;BME280;3848;42.016;23.098;2023-01-29T12:53:49;97361.63;;;5.12;100.00
7614;BME280;3848;42.016;23.098;2023-01-29T12:56:25;97359.91;;;5.11;100.00
7614;BME280;3848;42.016;23.098;2023-01-29T12:58:56;97359.19;;;5.18;100.00
7614;BME280;3848;42.016;23.098;2023-01-29T13:01:27;97356.56;;;5.11;100.00
7614;BME280;3848;42.016;23.098;2023-01-29T13:04:00;97363.13;;;5.03;100.00
7614;BME280;3848;42.016;23.098;2023-01-29T13:06:32;97362.28;;;5.02;100.00
7614;BME280;3848;42.016;23.098;2023-01-29T13:09:02;97364.88;;;5.07;100.00
7614;BME280;3848;42.016;23.098;2023-01-29T13:11:51;97348.06;;;5.04;100.00
7614;BME280;3848;42.016;23.098;2023-01-29T13:14:22;97347.22;;;5.04;100.00
7614;BME280;3848;42.016;23.098;2023-01-29T13:16:54;97351.59;;;5.15;100.00
7614;BME280;3848;42.016;23.098;2023-01-29T13:19:26;97367.56;;;5.17;100.00
7614;BME280;3848;42.016;23.098;2023-01-29T13:21:54;97367.53;;;5.16;100.00
7614;BME280;3848;42.016;23.098;2023-01-29T13:24:24;97367.56;;;5.17;100.00
7614;BME280;3848;42.016;23.098;2023-01-29T13:26:52;97375.00;;;5.10;100.00
7614;BME280;3848;42.016;23.098;2023-01-29T13:29:23;97369.81;;;5.01;100.00
7614;BME280;3848;42.016;23.098;2023-01-29T13:31:51;97322.19;;;4.65;100.00
7614;BME280;3848;42.016;23.098;2023-01-29T13:34:21;97361.16;;;4.86;100.00
7614;BME280;3848;42.016;23.098;2023-01-29T13:36:51;97364.66;;;4.95;100.00